Time;durP1;ratioP1;P1;durP2;ratioP2;P2;SDS_P1;SDS_P2;PMS_P1;PMS_P2;Temp;Humidity;BMP_temperature;BMP_pressure;BME280_temperature;BME280_humidity;BME280_pressure;Samples;Min_cycle;Max_cycle;Signal;HPM_P1;HPM_P2
2022/08/28 00:01:00;;;;;;;4;2.2;;;;;;;18.22;96.75195;936.9819;;;;
2022/08/28 00:03:31;;;;;;;2.4;2.2;;;;;;;18.21;97.01563;936.9853;;;;
2022/08/28 00:05:54;;;;;;;2.1;2;;;;;;;18.25;96.67871;937.0016;;;;
2022/08/28 00:08:19;;;;;;;2;1.8;;;;;;;18.27;96.22949;936.8828;;;;
2022/08/28 00:10:44;;;;;;;2.5;1.9;;;;;;;18.32;96.33203;936.9348;;;;
2022/08/28 00:13:14;;;;;;;3.3;1.9;;;;;;;18.3;96.01465;936.9997;;;;
2022/08/28 00:15:36;;;;;;;3.9;2.3;;;;;;;18.26;96.35352;936.9854;;;;
2022/08/28 00:18:00;;;;;;;2.3;2;;;;;;;18.2;96.67871;936.9894;;;;
2022/08/28 00:20:29;;;;;;;3.5;2.1;;;;;;;18.24;96.4541;936.985;;;;
2022/08/28 00:22:54;;;;;;;2.2;2;;;;;;;18.25;96.31836;936.9493;;;;
2022/08/28 00:25:23;;;;;;;2.3;2.1;;;;;;;18.26;96.45996;936.928;;;;
2022/08/28 00:27:53;;;;;;;2.3;1.9;;;;;;;18.29;96.52344;936.9508;;;;
2022/08/28 00:30:12;;;;;;;2.9;2.4;;;;;;;18.24;97.18555;936.9333;;;;
2022/08/28 00:32:37;;;;;;;4.6;2.2;;;;;;;18.26;97.0293;936.9031;;;;
2022/08/28 00:35:02;;;;;;;3.6;2.6;;;;;;;18.31;96.74707;936.9553;;;;
2022/08/28 00:37:27;;;;;;;2.4;2.2;;;;;;;18.29;97.23242;936.921;;;;
2022/08/28 00:39:55;;;;;;;2.3;2.1;;;;;;;18.32;97.09961;936.9316;;;;
2022/08/28 00:42:20;;;;;;;2.6;2.2;;;;;;;18.31;97.08594;936.9648;;;;
2022/08/28 00:44:46;;;;;;;2;1.9;;;;;;;18.31;96.84375;936.8978;;;;
2022/08/28 00:47:11;;;;;;;2.5;2.3;;;;;;;18.25;96.91113;936.8814;;;;
2022/08/28 00:49:39;;;;;;;2.2;2;;;;;;;18.14;97.51465;936.9352;;;;
2022/08/28 00:52:10;;;;;;;2.7;2.1;;;;;;;18.2;97.25977;936.8742;;;;
2022/08/28 00:54:30;;;;;;;2.3;2.1;;;;;;;18.23;97.27734;936.9319;;;;
2022/08/28 00:56:56;;;;;;;3;2.1;;;;;;;18.2;97.375;936.9426;;;;
2022/08/28 00:59:22;;;;;;;2.2;2;;;;;;;18.21;97.07715;936.9199;;;;
2022/08/28 01:01:47;;;;;;;3.2;2.6;;;;;;;18.15;97.45605;936.8884;;;;
2022/08/28 01:04:15;;;;;;;2.5;1.9;;;;;;;18.14;97.22168;936.8901;;;;
2022/08/28 01:06:38;;;;;;;1.9;1.8;;;;;;;18.14;97.03809;936.8981;;;;
2022/08/28 01:09:05;;;;;;;1.8;1.7;;;;;;;18.17;96.88184;936.8394;;;;
2022/08/28 01:11:29;;;;;;;2.9;2.1;;;;;;;18.21;97.06348;936.8475;;;;
2022/08/28 01:13:55;;;;;;;2.4;1.8;;;;;;;18.25;96.87598;936.8848;;;;
2022/08/28 01:16:21;;;;;;;2.5;2.1;;;;;;;18.28;96.70801;936.834;;;;
2022/08/28 01:18:48;;;;;;;2.2;2;;;;;;;18.3;96.94434;936.8191;;;;
2022/08/28 01:21:13;;;;;;;2;1.8;;;;;;;18.32;97.07617;936.8042;;;;
2022/08/28 01:23:41;;;;;;;2.5;2.1;;;;;;;18.34;97.10352;936.7505;;;;
2022/08/28 01:26:06;;;;;;;2.3;2.1;;;;;;;18.33;97.06641;936.7742;;;;
2022/08/28 01:28:33;;;;;;;2.6;2.1;;;;;;;18.33;96.83398;936.7556;;;;
2022/08/28 01:30:58;;;;;;;2.4;2.2;;;;;;;18.27;97.07813;936.7439;;;;
2022/08/28 01:33:26;;;;;;;2.1;1.9;;;;;;;18.24;97.3252;936.7294;;;;
2022/08/28 01:35:51;;;;;;;4.2;2;;;;;;;18.24;97.55957;936.7285;;;;
2022/08/28 01:38:20;;;;;;;2.1;1.9;;;;;;;18.23;97.08105;936.6537;;;;
2022/08/28 01:40:46;;;;;;;2.5;1.7;;;;;;;18.21;97.00586;936.6105;;;;
2022/08/28 01:43:14;;;;;;;2.7;2;;;;;;;17.96;97.56543;936.7068;;;;
2022/08/28 01:45:40;;;;;;;2.1;1.9;;;;;;;17.92;98.33594;936.6691;;;;
2022/08/28 01:48:08;;;;;;;2;1.8;;;;;;;18.01;97.70508;936.7009;;;;
2022/08/28 01:50:33;;;;;;;2.2;1.9;;;;;;;18.07;97.80078;936.6958;;;;
2022/08/28 01:52:59;;;;;;;2.4;2.2;;;;;;;18.04;97.73438;936.6522;;;;
2022/08/28 01:55:24;;;;;;;3.9;2.2;;;;;;;18;97.44531;936.673;;;;
2022/08/28 01:57:49;;;;;;;3.3;2.4;;;;;;;17.9;98.6084;936.6308;;;;
2022/08/28 02:00:20;;;;;;;3.5;2.5;;;;;;;17.87;98.39258;936.6089;;;;
2022/08/28 02:02:50;;;;;;;2.4;2.2;;;;;;;17.84;98.66797;936.5634;;;;
2022/08/28 02:05:15;;;;;;;2.5;2.2;;;;;;;17.75;99.01855;936.5867;;;;
2022/08/28 02:07:43;;;;;;;2.9;2.5;;;;;;;17.77;98.90723;936.5709;;;;
2022/08/28 02:10:08;;;;;;;3.2;2.3;;;;;;;17.84;98.73535;936.5659;;;;
2022/08/28 02:12:34;;;;;;;2.7;2.5;;;;;;;17.69;99.67773;936.5035;;;;
2022/08/28 02:14:58;;;;;;;3.3;2.7;;;;;;;17.61;100;936.4989;;;;
2022/08/28 02:17:28;;;;;;;2.7;2.5;;;;;;;17.53;100;936.528;;;;
2022/08/28 02:19:56;;;;;;;2.7;2.3;;;;;;;17.51;100;936.5129;;;;
2022/08/28 02:22:21;;;;;;;2.3;2.1;;;;;;;17.51;100;936.567;;;;
2022/08/28 02:24:48;;;;;;;2.6;2.4;;;;;;;17.52;100;936.5281;;;;
2022/08/28 02:27:13;;;;;;;2.4;2.2;;;;;;;17.51;100;936.5341;;;;
2022/08/28 02:29:42;;;;;;;1.9;1.7;;;;;;;17.53;100;936.527;;;;
2022/08/28 02:32:06;;;;;;;2.2;2;;;;;;;17.61;100;936.4706;;;;
2022/08/28 02:34:33;;;;;;;2.4;1.9;;;;;;;17.69;100;936.4818;;;;
2022/08/28 02:36:58;;;;;;;2.7;1.9;;;;;;;17.64;100;936.5413;;;;
2022/08/28 02:39:27;;;;;;;2.2;2;;;;;;;17.63;100;936.5247;;;;
2022/08/28 02:41:52;;;;;;;2.2;2;;;;;;;17.64;100;936.5114;;;;
2022/08/28 02:44:18;;;;;;;3.7;2.3;;;;;;;17.65;100;936.4548;;;;
2022/08/28 02:46:43;;;;;;;2.5;2.3;;;;;;;17.58;100;936.5277;;;;
2022/08/28 02:49:09;;;;;;;2.9;2.1;;;;;;;17.54;100;936.4827;;;;
2022/08/28 02:51:35;;;;;;;2.4;2.2;;;;;;;17.62;100;936.5417;;;;
2022/08/28 02:54:01;;;;;;;2.5;2.1;;;;;;;17.68;99.71094;936.5592;;;;
2022/08/28 02:56:26;;;;;;;2.9;1.9;;;;;;;17.74;99.50195;936.538;;;;
2022/08/28 02:58:54;;;;;;;2.3;2.1;;;;;;;17.51;100;936.5977;;;;
2022/08/28 03:01:18;;;;;;;2.8;2.5;;;;;;;17.43;100;936.6016;;;;
2022/08/28 03:03:44;;;;;;;3.1;2.2;;;;;;;17.46;100;936.5945;;;;
2022/08/28 03:06:10;;;;;;;2.9;2.1;;;;;;;17.54;100;936.5705;;;;
2022/08/28 03:08:37;;;;;;;3.5;2;;;;;;;17.52;100;936.5667;;;;
2022/08/28 03:11:02;;;;;;;3;2.1;;;;;;;17.48;100;936.4911;;;;
2022/08/28 03:13:28;;;;;;;2.5;2.3;;;;;;;17.58;100;936.5276;;;;
2022/08/28 03:15:54;;;;;;;2.8;2.2;;;;;;;17.63;100;936.5536;;;;
2022/08/28 03:18:21;;;;;;;3.1;2.2;;;;;;;17.7;99.59668;936.5928;;;;
2022/08/28 03:20:46;;;;;;;2.6;2;;;;;;;17.75;99.46973;936.5989;;;;
2022/08/28 03:23:28;;;;;;;2.7;2;;;;;;;17.8;99.12012;936.6237;;;;
2022/08/28 03:25:38;;;;;;;2.4;2.2;;;;;;;17.81;98.4043;936.5928;;;;
2022/08/28 03:28:03;;;;;;;3.8;2.9;;;;;;;17.85;98.2959;936.5658;;;;
2022/08/28 03:30:31;;;;;;;2.6;2.1;;;;;;;17.87;98.3252;936.524;;;;
2022/08/28 03:32:57;;;;;;;2.3;2.1;;;;;;;17.89;98.20215;936.5358;;;;
2022/08/28 03:35:27;;;;;;;2.5;2.3;;;;;;;17.88;98.25781;936.5432;;;;
2022/08/28 03:37:52;;;;;;;3.3;2.2;;;;;;;17.86;98.14941;936.5614;;;;
2022/08/28 03:40:20;;;;;;;2.9;2.2;;;;;;;17.82;97.48926;936.5374;;;;
2022/08/28 03:42:45;;;;;;;3.1;2.1;;;;;;;17.74;97.54102;936.6039;;;;
2022/08/28 03:45:16;;;;;;;2.9;2.5;;;;;;;17.66;97.89551;936.6044;;;;
2022/08/28 03:47:43;;;;;;;2.4;2;;;;;;;17.64;97.86621;936.6983;;;;
2022/08/28 03:50:10;;;;;;;2.6;2.1;;;;;;;17.64;97.78516;936.6387;;;;
2022/08/28 03:52:39;;;;;;;2.4;2.2;;;;;;;17.68;98.08398;936.6462;;;;
2022/08/28 03:55:04;;;;;;;2.3;2;;;;;;;17.73;98.39941;936.6178;;;;
2022/08/28 03:57:32;;;;;;;3.3;2.1;;;;;;;17.75;98.40137;936.6182;;;;
2022/08/28 03:59:57;;;;;;;2.2;2;;;;;;;17.76;97.92773;936.5843;;;;
2022/08/28 04:02:34;;;;;;;2.9;2.3;;;;;;;17.77;97.77832;936.6783;;;;
2022/08/28 04:05:04;;;;;;;3.7;2.1;;;;;;;17.76;97.62793;936.6309;;;;
2022/08/28 04:07:28;;;;;;;2.3;1.9;;;;;;;17.78;97.59473;936.6789;;;;
2022/08/28 04:09:54;;;;;;;2.4;2.2;;;;;;;17.8;97.74023;936.6848;;;;
2022/08/28 04:12:19;;;;;;;2.3;2.1;;;;;;;17.83;97.90723;936.6934;;;;
2022/08/28 04:14:46;;;;;;;2.7;2.2;;;;;;;17.76;98.0459;936.717;;;;
2022/08/28 04:17:11;;;;;;;2.3;2.1;;;;;;;17.71;98.45117;936.7213;;;;
2022/08/28 04:19:38;;;;;;;2.6;2.3;;;;;;;17.71;99.11328;936.7045;;;;
2022/08/28 04:22:03;;;;;;;2.5;2.2;;;;;;;17.69;98.4707;936.7411;;;;
2022/08/28 04:24:31;;;;;;;2.4;2;;;;;;;17.69;98.16699;936.7324;;;;
2022/08/28 04:26:56;;;;;;;2.6;2.1;;;;;;;17.73;98.08398;936.6211;;;;
2022/08/28 04:29:23;;;;;;;2.4;2.1;;;;;;;17.66;98.37207;936.7197;;;;
2022/08/28 04:31:48;;;;;;;5.3;2.7;;;;;;;17.65;98.24023;936.7046;;;;
2022/08/28 04:34:17;;;;;;;2.3;2.1;;;;;;;17.62;98.38477;936.6946;;;;
2022/08/28 04:36:42;;;;;;;2.6;2.4;;;;;;;17.67;98.33691;936.6953;;;;
2022/08/28 04:39:09;;;;;;;2.9;2.2;;;;;;;17.74;98.43457;936.6057;;;;
2022/08/28 04:41:35;;;;;;;2.5;2.3;;;;;;;17.79;98.71387;936.7269;;;;
2022/08/28 04:44:04;;;;;;;2.5;2.3;;;;;;;17.81;98.41602;936.7395;;;;
2022/08/28 04:46:35;;;;;;;2.8;2.4;;;;;;;17.84;98.31934;936.7503;;;;
2022/08/28 04:49:05;;;;;;;2.3;2.1;;;;;;;17.84;97.75977;936.7352;;;;
2022/08/28 04:51:35;;;;;;;2.7;2.2;;;;;;;17.87;97.64941;936.741;;;;
2022/08/28 04:54:00;;;;;;;2.2;2;;;;;;;17.9;97.76074;936.8144;;;;
2022/08/28 04:56:28;;;;;;;2.5;2.3;;;;;;;17.89;97.83008;936.8122;;;;
2022/08/28 04:58:53;;;;;;;3;2.3;;;;;;;17.87;97.92871;936.8262;;;;
2022/08/28 05:01:23;;;;;;;3.1;2.1;;;;;;;17.83;98.29199;936.8094;;;;
2022/08/28 05:03:47;;;;;;;2.6;2.4;;;;;;;17.81;98.56641;936.8457;;;;
2022/08/28 05:06:12;;;;;;;3;2.1;;;;;;;17.81;98.25293;936.8072;;;;
2022/08/28 05:08:41;;;;;;;2.9;2.2;;;;;;;17.85;98.27441;936.8934;;;;
2022/08/28 05:11:12;;;;;;;3.3;2.4;;;;;;;17.84;98.43555;936.8535;;;;
2022/08/28 05:13:37;;;;;;;4.3;2;;;;;;;17.89;98.64258;936.8443;;;;
2022/08/28 05:16:05;;;;;;;2.8;2.2;;;;;;;17.9;98.13184;936.8515;;;;
2022/08/28 05:18:34;;;;;;;2.9;2.3;;;;;;;17.92;97.80176;936.8438;;;;
2022/08/28 05:20:59;;;;;;;2.6;2.4;;;;;;;17.93;97.7334;936.8911;;;;
2022/08/28 05:23:24;;;;;;;2.6;2.4;;;;;;;17.9;97.79688;936.9433;;;;
2022/08/28 05:25:51;;;;;;;2.4;2.1;;;;;;;17.96;97.5791;936.9525;;;;
2022/08/28 05:28:17;;;;;;;2.5;2;;;;;;;17.97;97.90625;936.9934;;;;
2022/08/28 05:30:42;;;;;;;2.4;2.2;;;;;;;17.86;98.59961;937.0352;;;;
2022/08/28 05:33:07;;;;;;;3.1;2.4;;;;;;;17.88;98.82715;936.9807;;;;
2022/08/28 05:35:32;;;;;;;4.3;2.7;;;;;;;17.88;98.53613;936.9557;;;;
2022/08/28 05:37:58;;;;;;;2.4;2.2;;;;;;;17.91;98.44922;937.0059;;;;
2022/08/28 05:40:28;;;;;;;3.2;2.2;;;;;;;17.98;98.39648;937.002;;;;
2022/08/28 05:42:54;;;;;;;2.4;1.8;;;;;;;18.04;98.07129;937.0608;;;;
2022/08/28 05:45:24;;;;;;;3.2;1.9;;;;;;;18.11;97.21387;937.1116;;;;
2022/08/28 05:47:53;;;;;;;4.1;2.4;;;;;;;18.13;97.09277;937.1047;;;;
2022/08/28 05:50:18;;;;;;;3.9;2.7;;;;;;;18.18;96.83496;937.1189;;;;
2022/08/28 05:52:46;;;;;;;2.5;2.3;;;;;;;18.31;96.24902;937.1647;;;;
2022/08/28 05:55:11;;;;;;;2.5;2.1;;;;;;;18.41;95.60742;937.152;;;;
2022/08/28 05:57:43;;;;;;;2.9;2.3;;;;;;;18.5;95.12793;937.1479;;;;
2022/08/28 06:00:12;;;;;;;2.7;2.1;;;;;;;18.68;94.63184;937.1113;;;;
2022/08/28 06:02:46;;;;;;;2.4;2.2;;;;;;;18.86;93.69238;937.1248;;;;
2022/08/28 06:05:13;;;;;;;2.4;2.1;;;;;;;18.99;92.32227;937.0515;;;;
2022/08/28 06:07:36;;;;;;;2.8;2.3;;;;;;;19.17;90.76465;937.1563;;;;
2022/08/28 06:10:08;;;;;;;2.4;2.2;;;;;;;19.27;89.89063;937.1806;;;;
2022/08/28 06:12:33;;;;;;;2.8;2.3;;;;;;;19.36;89.25586;937.1064;;;;
2022/08/28 06:15:01;;;;;;;2.7;2.2;;;;;;;19.39;89.78809;937.171;;;;
2022/08/28 06:17:31;;;;;;;3.1;2;;;;;;;19.44;89.9834;937.0601;;;;
2022/08/28 06:20:00;;;;;;;1.9;1.8;;;;;;;19.45;88.45703;937.1512;;;;
2022/08/28 06:22:30;;;;;;;1.8;1.7;;;;;;;19.29;87.35449;937.135;;;;
2022/08/28 06:24:55;;;;;;;2.5;2.3;;;;;;;19.12;88.43848;937.1503;;;;
2022/08/28 06:27:22;;;;;;;2.3;2.1;;;;;;;19;89.8584;937.2053;;;;
2022/08/28 06:29:47;;;;;;;2.4;2;;;;;;;19.19;90.58203;937.2713;;;;
2022/08/28 06:32:12;;;;;;;2.3;2.1;;;;;;;19.21;89.79395;937.274;;;;
2022/08/28 06:34:40;;;;;;;2.7;1.9;;;;;;;19.31;89.31543;937.2515;;;;
2022/08/28 06:37:06;;;;;;;3.3;2.1;;;;;;;19.45;89.56543;937.2892;;;;
2022/08/28 06:39:33;;;;;;;2.2;2;;;;;;;19.49;87.00977;937.2729;;;;
2022/08/28 06:41:58;;;;;;;2.5;2.1;;;;;;;19.54;87.27441;937.255;;;;
2022/08/28 06:44:30;;;;;;;2.4;2.2;;;;;;;19.59;88.28809;937.2544;;;;
2022/08/28 06:46:54;;;;;;;3.1;1.9;;;;;;;19.78;86.30859;937.2802;;;;
2022/08/28 06:49:21;;;;;;;2;1.6;;;;;;;19.85;85.25879;937.2859;;;;
2022/08/28 06:51:46;;;;;;;1.9;1.8;;;;;;;19.91;85.31836;937.327;;;;
2022/08/28 06:54:16;;;;;;;2.2;2;;;;;;;19.92;85.13477;937.3591;;;;
2022/08/28 06:56:46;;;;;;;3;2.2;;;;;;;20.03;84.8877;937.3758;;;;
2022/08/28 06:59:11;;;;;;;2.1;1.9;;;;;;;20.01;84.56738;937.3395;;;;
2022/08/28 07:01:41;;;;;;;2.5;2.2;;;;;;;20.11;84.25977;937.3663;;;;
2022/08/28 07:04:13;;;;;;;2.2;2;;;;;;;20.11;84.75098;937.4413;;;;
2022/08/28 07:06:44;;;;;;;2.9;1.9;;;;;;;20.13;84.64844;937.4141;;;;
2022/08/28 07:09:11;;;;;;;2.7;1.9;;;;;;;20.18;83.39941;937.4812;;;;
2022/08/28 07:11:36;;;;;;;2.8;1.9;;;;;;;20.08;83.36719;937.435;;;;
2022/08/28 07:14:03;;;;;;;2;1.8;;;;;;;20.2;85;937.446;;;;
2022/08/28 07:16:28;;;;;;;2.4;2.1;;;;;;;20.08;85.87793;937.485;;;;
2022/08/28 07:18:57;;;;;;;2.7;1.9;;;;;;;20.31;84.47266;937.4973;;;;
2022/08/28 07:21:22;;;;;;;2.2;2;;;;;;;20.51;82.88867;937.4942;;;;
2022/08/28 07:23:49;;;;;;;2.2;1.9;;;;;;;20.51;85.39941;937.4434;;;;
2022/08/28 07:26:14;;;;;;;2;1.8;;;;;;;20.36;82.79004;937.55;;;;
2022/08/28 07:28:41;;;;;;;2;1.8;;;;;;;20.75;80.52441;937.5601;;;;
2022/08/28 07:31:08;;;;;;;1.7;1.5;;;;;;;21.01;78.87695;937.5563;;;;
2022/08/28 07:33:35;;;;;;;2.3;1.7;;;;;;;21.24;78.98926;937.5488;;;;
2022/08/28 07:36:00;;;;;;;3.1;1.7;;;;;;;21.36;78.20215;937.5952;;;;
2022/08/28 07:38:29;;;;;;;1.8;1.7;;;;;;;21.49;77.88477;937.5773;;;;
2022/08/28 07:40:54;;;;;;;2.9;1.8;;;;;;;21.14;75.4834;937.6116;;;;
2022/08/28 07:45:49;;;;;;;2.7;1.8;;;;;;;21.44;79.10449;937.5767;;;;
2022/08/28 07:48:15;;;;;;;3.4;1.8;;;;;;;21.75;77.17969;937.6143;;;;
2022/08/28 07:50:41;;;;;;;3.3;1.7;;;;;;;22.09;77.71191;937.675;;;;
2022/08/28 07:53:06;;;;;;;1.6;1.5;;;;;;;22.18;74.71094;937.6852;;;;
2022/08/28 07:55:34;;;;;;;1.7;1.6;;;;;;;21.86;76.71973;937.6844;;;;
2022/08/28 07:57:59;;;;;;;1.5;1.4;;;;;;;21.95;74.27441;937.6577;;;;
2022/08/28 08:00:29;;;;;;;1.6;1.5;;;;;;;21.97;73.38867;937.7242;;;;
2022/08/28 08:02:54;;;;;;;1.5;1.4;;;;;;;21.79;75.56055;937.723;;;;
2022/08/28 08:05:27;;;;;;;2.9;1.5;;;;;;;21.96;72.80078;937.7424;;;;
2022/08/28 08:07:53;;;;;;;1.5;1.4;;;;;;;21.8;78.03223;937.7365;;;;
2022/08/28 08:10:22;;;;;;;1.7;1.6;;;;;;;21.76;74.92188;937.7411;;;;
2022/08/28 08:12:53;;;;;;;1.9;1.7;;;;;;;22.2;74.7627;937.6492;;;;
2022/08/28 08:15:18;;;;;;;2.8;2;;;;;;;22.17;76.44629;937.8109;;;;
2022/08/28 08:17:51;;;;;;;1.8;1.7;;;;;;;22.31;73.65625;937.7752;;;;
2022/08/28 08:20:21;;;;;;;1.8;1.7;;;;;;;22.22;76.17383;937.8456;;;;
2022/08/28 08:22:51;;;;;;;1.6;1.5;;;;;;;22.23;74.07617;937.8123;;;;
2022/08/28 08:25:19;;;;;;;1.7;1.6;;;;;;;21.96;77.81543;937.8471;;;;
2022/08/28 08:27:45;;;;;;;1.8;1.6;;;;;;;22.25;73.44434;937.7623;;;;
2022/08/28 08:30:09;;;;;;;1.7;1.6;;;;;;;22.3;76.18652;937.7999;;;;
2022/08/28 08:32:38;;;;;;;2;1.6;;;;;;;22.01;76.91016;937.7609;;;;
2022/08/28 08:35:02;;;;;;;1.8;1.7;;;;;;;22.22;77.34668;937.7726;;;;
2022/08/28 08:37:31;;;;;;;2.3;1.9;;;;;;;21.99;76.66113;937.7819;;;;
2022/08/28 08:39:56;;;;;;;1.9;1.8;;;;;;;22.24;77.20801;937.8315;;;;
2022/08/28 08:42:27;;;;;;;2.3;1.9;;;;;;;22.68;74.16211;937.7874;;;;
2022/08/28 08:44:57;;;;;;;2.1;1.8;;;;;;;22.69;73.48242;937.7723;;;;
2022/08/28 08:47:22;;;;;;;2.3;2.1;;;;;;;23.24;70.89453;937.726;;;;
2022/08/28 08:49:47;;;;;;;2.3;1.9;;;;;;;23.29;73.55957;937.8069;;;;
2022/08/28 08:52:12;;;;;;;2.4;2.2;;;;;;;23.51;73.62988;937.8152;;;;
2022/08/28 08:54:39;;;;;;;2.9;2;;;;;;;24.23;70.52051;937.8444;;;;
2022/08/28 08:57:04;;;;;;;2.1;1.9;;;;;;;24.75;66.59375;937.8098;;;;
2022/08/28 08:59:30;;;;;;;2.1;1.9;;;;;;;25.71;62.47168;937.8144;;;;
2022/08/28 09:01:55;;;;;;;2.2;2;;;;;;;25.78;62.09082;937.8144;;;;
2022/08/28 09:04:24;;;;;;;2.3;2.1;;;;;;;26.82;58.44434;937.7992;;;;
2022/08/28 09:06:50;;;;;;;1.8;1.7;;;;;;;27.03;58.52051;937.8089;;;;
2022/08/28 09:09:18;;;;;;;2.1;1.9;;;;;;;27.49;54.41309;937.7874;;;;
2022/08/28 09:11:43;;;;;;;3.2;2.2;;;;;;;27.42;57.2998;937.7922;;;;
2022/08/28 09:14:09;;;;;;;2.3;1.9;;;;;;;27.64;58.13574;937.7594;;;;
2022/08/28 09:16:34;;;;;;;2;1.8;;;;;;;26.77;58.02246;937.8232;;;;
2022/08/28 09:18:59;;;;;;;2.3;2.1;;;;;;;27.45;56.75781;937.8411;;;;
2022/08/28 09:21:25;;;;;;;2.5;2.3;;;;;;;26.5;60.04785;937.8163;;;;
2022/08/28 09:23:49;;;;;;;2.4;2.2;;;;;;;27.62;57.37402;937.8188;;;;
2022/08/28 09:26:14;;;;;;;2.4;2.2;;;;;;;27.04;59.55176;937.794;;;;
2022/08/28 09:28:49;;;;;;;2.3;2;;;;;;;26.55;60.32617;937.8326;;;;
2022/08/28 09:31:08;;;;;;;2.7;2.2;;;;;;;25.95;59.76074;937.7758;;;;
2022/08/28 09:33:34;;;;;;;3.6;2.7;;;;;;;24.83;65.93359;937.8478;;;;
2022/08/28 09:35:59;;;;;;;3;2.7;;;;;;;23.88;67.32422;937.8209;;;;
2022/08/28 09:38:29;;;;;;;2.5;2.3;;;;;;;23.96;70.63281;937.8767;;;;
2022/08/28 09:43:28;;;;;;;2.5;2.3;;;;;;;24.37;70.30957;937.8286;;;;
2022/08/28 09:45:47;;;;;;;2.3;2.1;;;;;;;25.13;68.53906;937.8785;;;;
2022/08/28 09:48:12;;;;;;;2.5;2.1;;;;;;;25.26;67.22559;937.8275;;;;
2022/08/28 09:50:37;;;;;;;2.9;2.2;;;;;;;25;64.51953;937.9152;;;;
2022/08/28 09:53:06;;;;;;;2.1;1.9;;;;;;;25.48;62.3916;937.8834;;;;
2022/08/28 09:55:31;;;;;;;2.4;2.2;;;;;;;25.35;63.01172;937.8681;;;;
2022/08/28 09:57:56;;;;;;;2;1.8;;;;;;;25.77;61.94727;937.84;;;;
2022/08/28 10:00:27;;;;;;;2.2;1.9;;;;;;;25.63;61.77539;937.8589;;;;
2022/08/28 10:02:53;;;;;;;2.1;1.9;;;;;;;24.93;64.04883;937.8542;;;;
2022/08/28 10:05:18;;;;;;;2.4;2.2;;;;;;;24.16;67.71973;937.8723;;;;
2022/08/28 10:07:50;;;;;;;2.6;2.4;;;;;;;23.28;71.80469;937.9666;;;;
2022/08/28 10:10:15;;;;;;;2.3;2.1;;;;;;;23.19;70.55762;937.9964;;;;
2022/08/28 10:12:42;;;;;;;2.9;2.4;;;;;;;23.18;71.89453;938.0336;;;;
2022/08/28 10:15:15;;;;;;;2.7;2.3;;;;;;;23;73.39355;938.0272;;;;
2022/08/28 10:17:41;;;;;;;2.9;2.6;;;;;;;22.64;74.06055;938.0698;;;;
2022/08/28 10:20:20;;;;;;;3.2;2.9;;;;;;;22.5;76.96094;938.072;;;;
2022/08/28 10:22:49;;;;;;;2.5;2.3;;;;;;;22.57;75.68164;938.046;;;;
2022/08/28 10:25:22;;;;;;;3;2.7;;;;;;;22.45;76.92871;938.0366;;;;
2022/08/28 10:27:47;;;;;;;3.2;2.8;;;;;;;22.23;77.97949;937.9861;;;;
2022/08/28 10:30:12;;;;;;;3;2.8;;;;;;;22.18;77.02051;938.033;;;;
2022/08/28 10:32:37;;;;;;;2.7;2.5;;;;;;;22.02;78.68164;938.0494;;;;
2022/08/28 10:35:13;;;;;;;3.3;2.6;;;;;;;22.4;77.36523;938.0836;;;;
2022/08/28 10:37:40;;;;;;;3.2;2.8;;;;;;;22.67;77.93848;938.0662;;;;
2022/08/28 10:40:05;;;;;;;3.3;3;;;;;;;22.57;76.76074;938.0541;;;;
2022/08/28 10:42:36;;;;;;;3.1;2.8;;;;;;;22.33;77.49316;938.0756;;;;
2022/08/28 10:45:03;;;;;;;3.4;2.9;;;;;;;22.5;77.25293;938.0731;;;;
2022/08/28 10:47:26;;;;;;;3.1;2.7;;;;;;;22.5;75.43555;938.0714;;;;
2022/08/28 10:49:57;;;;;;;3.1;2.8;;;;;;;22.5;76.66797;938.0697;;;;
2022/08/28 10:52:24;;;;;;;2.7;2.5;;;;;;;22.66;73.94824;938.1249;;;;
2022/08/28 10:54:48;;;;;;;3.7;2.4;;;;;;;22.65;74.93262;938.1107;;;;
2022/08/28 10:57:13;;;;;;;2.6;2.4;;;;;;;22.72;75.34375;938.1422;;;;
2022/08/28 10:59:38;;;;;;;2.3;2.1;;;;;;;22.89;73.32813;938.0608;;;;
2022/08/28 11:02:04;;;;;;;3;2.4;;;;;;;22.91;73.91895;938.1096;;;;
2022/08/28 11:04:29;;;;;;;2.9;2.3;;;;;;;23.24;72.6582;938.1272;;;;
2022/08/28 11:06:56;;;;;;;2.3;2.1;;;;;;;23.45;72.91602;938.1328;;;;
2022/08/28 11:09:25;;;;;;;2.9;2.6;;;;;;;23.9;70.87109;938.0916;;;;
2022/08/28 11:11:48;;;;;;;2.6;2.4;;;;;;;24.1;69.84277;938.1435;;;;
2022/08/28 11:14:13;;;;;;;2.5;2.3;;;;;;;23.96;70.70313;938.1266;;;;
2022/08/28 11:16:38;;;;;;;2.4;2.2;;;;;;;22.93;72.72461;938.1276;;;;
2022/08/28 11:19:25;;;;;;;2.3;2.1;;;;;;;23.12;71.13281;938.1693;;;;
2022/08/28 11:21:50;;;;;;;1.9;1.8;;;;;;;23.05;70.99316;938.2004;;;;
2022/08/28 11:24:16;;;;;;;2.6;1.8;;;;;;;22.8;70.80176;938.2706;;;;
2022/08/28 11:26:41;;;;;;;3.6;2.3;;;;;;;22.56;75.24414;938.3215;;;;
2022/08/28 11:29:08;;;;;;;5.2;3;;;;;;;22.35;76.53613;938.303;;;;
2022/08/28 11:31:33;;;;;;;4.4;2.8;;;;;;;22.32;77.11621;938.4436;;;;
2022/08/28 11:34:01;;;;;;;4.1;2.7;;;;;;;21.86;78.65332;938.4124;;;;
2022/08/28 11:36:25;;;;;;;3.1;2.3;;;;;;;21.41;80.62109;938.4167;;;;
2022/08/28 11:38:54;;;;;;;3;2.5;;;;;;;21.04;82.78906;938.358;;;;
2022/08/28 11:41:25;;;;;;;2.6;2.4;;;;;;;20.53;86.34961;938.42;;;;
2022/08/28 11:43:48;;;;;;;1.8;1.7;;;;;;;20.45;86.04395;938.427;;;;
2022/08/28 11:46:13;;;;;;;1.9;1.8;;;;;;;20.3;87.40332;938.4841;;;;
2022/08/28 11:48:41;;;;;;;1.4;1.3;;;;;;;20.32;85.375;938.5087;;;;
2022/08/28 11:51:05;;;;;;;1.4;1.3;;;;;;;20.35;86.36133;938.5476;;;;
2022/08/28 11:53:30;;;;;;;1.4;1.3;;;;;;;20.5;85.67676;938.6354;;;;
2022/08/28 11:55:55;;;;;;;1.4;1.3;;;;;;;20.3;86.17676;938.7106;;;;
2022/08/28 11:58:28;;;;;;;1.5;1.4;;;;;;;19.98;87.58398;938.7364;;;;
2022/08/28 12:00:53;;;;;;;1.5;1.4;;;;;;;19.95;87.4502;938.6976;;;;
2022/08/28 12:03:21;;;;;;;1.4;1.3;;;;;;;20.07;87.09961;938.7327;;;;
2022/08/28 12:05:46;;;;;;;1.9;1.3;;;;;;;20.19;86.6582;938.7892;;;;
2022/08/28 12:08:11;;;;;;;1.6;1.5;;;;;;;20.27;85.84277;938.8514;;;;
2022/08/28 12:10:36;;;;;;;2.5;1.6;;;;;;;;;;;;;
2022/08/28 12:13:01;;;;;;;1.8;1.7;;;;;;;;;;;;;
2022/08/28 12:15:26;;;;;;;1.7;1.6;;;;;;;;;;;;;
2022/08/28 12:17:51;;;;;;;2.4;1.8;;;;;;;;;;;;;
2022/08/28 12:20:17;;;;;;;2.9;1.7;;;;;;;;;;;;;
2022/08/28 12:22:42;;;;;;;2.3;2.1;;;;;;;;;;;;;
2022/08/28 12:25:08;;;;;;;2.3;2.1;;;;;;;;;;;;;
2022/08/28 12:27:35;;;;;;;2.6;2.3;;;;;;;;;;;;;
2022/08/28 12:30:00;;;;;;;3;2.7;;;;;;;;;;;;;
2022/08/28 12:32:26;;;;;;;14.1;6.6;;;;;;;;;;;;;
2022/08/28 12:34:51;;;;;;;26.2;11.1;;;;;;;;;;;;;
2022/08/28 12:37:16;;;;;;;29.9;11.4;;;;;;;;;;;;;
2022/08/28 12:39:41;;;;;;;10.4;5.4;;;;;;;;;;;;;
2022/08/28 12:42:06;;;;;;;8.2;4.9;;;;;;;;;;;;;
2022/08/28 12:44:33;;;;;;;6.5;4;;;;;;;;;;;;;
2022/08/28 12:46:58;;;;;;;6.8;4.2;;;;;;;;;;;;;
2022/08/28 12:49:23;;;;;;;5.5;3.8;;;;;;;;;;;;;
2022/08/28 12:51:49;;;;;;;6.3;4.2;;;;;;;;;;;;;
2022/08/28 12:54:13;;;;;;;5.6;3.7;;;;;;;;;;;;;
2022/08/28 12:56:38;;;;;;;3.7;3.2;;;;;;;;;;;;;
2022/08/28 12:59:03;;;;;;;10.6;3.7;;;;;;;;;;;;;
2022/08/28 13:01:29;;;;;;;3.8;2.9;;;;;;;;;;;;;
2022/08/28 13:04:05;;;;;;;4.3;3.5;;;;;;;;;;;;;
2022/08/28 13:06:29;;;;;;;5.1;3.3;;;;;;;;;;;;;
2022/08/28 13:08:57;;;;;;;4.2;3.2;;;;;;;;;;;;;
2022/08/28 13:11:22;;;;;;;4.2;3.2;;;;;;;;;;;;;
2022/08/28 13:13:48;;;;;;;4.2;3.1;;;;;;;;;;;;;
2022/08/28 13:16:13;;;;;;;4.2;3.7;;;;;;;;;;;;;
2022/08/28 13:18:38;;;;;;;4.8;3.5;;;;;;;;;;;;;
2022/08/28 13:21:03;;;;;;;4.8;3.5;;;;;;;;;;;;;
2022/08/28 13:23:29;;;;;;;6.8;3.8;;;;;;;;;;;;;
2022/08/28 13:25:54;;;;;;;5;3.6;;;;;;;;;;;;;
2022/08/28 13:28:19;;;;;;;5.7;3.3;;;;;;;;;;;;;
2022/08/28 13:30:44;;;;;;;3.7;3.1;;;;;;;;;;;;;
2022/08/28 13:33:10;;;;;;;3.8;3.3;;;;;;;;;;;;;
2022/08/28 13:35:35;;;;;;;3.4;3.1;;;;;;;;;;;;;
2022/08/28 13:38:00;;;;;;;3.7;3.2;;;;;;;;;;;;;
2022/08/28 13:40:26;;;;;;;3.8;3;;;;;;;;;;;;;
2022/08/28 13:42:51;;;;;;;3.7;2.9;;;;;;;;;;;;;
2022/08/28 13:45:17;;;;;;;3.3;3;;;;;;;;;;;;;
2022/08/28 13:47:42;;;;;;;3.2;2.6;;;;;;;;;;;;;
2022/08/28 13:50:10;;;;;;;2.5;2.3;;;;;;;;;;;;;
2022/08/28 13:52:36;;;;;;;2.9;2.7;;;;;;;;;;;;;
2022/08/28 13:55:01;;;;;;;3.2;2.6;;;;;;;;;;;;;
2022/08/28 13:57:26;;;;;;;3;2.7;;;;;;;;;;;;;
2022/08/28 13:59:54;;;;;;;4;3.6;;;;;;;;;;;;;
2022/08/28 14:04:44;;;;;;;2.9;2.6;;;;;;;;;;;;;
2022/08/28 14:07:09;;;;;;;2.7;2.5;;;;;;;;;;;;;
2022/08/28 14:09:35;;;;;;;2.7;2.5;;;;;;;;;;;;;
2022/08/28 14:12:00;;;;;;;2.7;2.5;;;;;;;;;;;;;
2022/08/28 14:14:25;;;;;;;3.3;2.1;;;;;;;;;;;;;
2022/08/28 14:16:51;;;;;;;2.1;1.9;;;;;;;;;;;;;
2022/08/28 14:19:19;;;;;;;1.8;1.7;;;;;;;;;;;;;
2022/08/28 14:21:41;;;;;;;2.6;1.9;;;;;;;;;;;;;
2022/08/28 14:24:06;;;;;;;2.2;1.8;;;;;;;;;;;;;
2022/08/28 14:26:31;;;;;;;2.2;1.6;;;;;;;;;;;;;
2022/08/28 14:28:56;;;;;;;2.3;1.6;;;;;;;;;;;;;
2022/08/28 14:31:22;;;;;;;1.8;1.7;;;;;;;;;;;;;
2022/08/28 14:33:49;;;;;;;1.8;1.7;;;;;;;;;;;;;
2022/08/28 14:36:23;;;;;;;1.6;1.5;;;;;;;;;;;;;
2022/08/28 14:38:41;;;;;;;1.8;1.7;;;;;;;;;;;;;
2022/08/28 14:41:06;;;;;;;2.2;1.7;;;;;;;;;;;;;
2022/08/28 14:43:33;;;;;;;2.2;2;;;;;;;;;;;;;
2022/08/28 14:45:57;;;;;;;2;1.9;;;;;;;;;;;;;
2022/08/28 14:48:22;;;;;;;2.2;2;;;;;;;;;;;;;
2022/08/28 14:50:48;;;;;;;1.8;1.7;;;;;;;;;;;;;
2022/08/28 14:53:13;;;;;;;1.6;1.5;;;;;;;;;;;;;
2022/08/28 14:55:38;;;;;;;1.9;1.7;;;;;;;;;;;;;
2022/08/28 14:58:04;;;;;;;1.8;1.6;;;;;;;;;;;;;
2022/08/28 15:00:29;;;;;;;2;1.8;;;;;;;;;;;;;
2022/08/28 15:02:55;;;;;;;2.2;2;;;;;;;;;;;;;
2022/08/28 15:05:20;;;;;;;3;1.8;;;;;;;;;;;;;
2022/08/28 15:07:47;;;;;;;2.1;1.7;;;;;;;;;;;;;
2022/08/28 15:10:13;;;;;;;2.4;1.9;;;;;;;;;;;;;
2022/08/28 15:12:39;;;;;;;2.3;2.1;;;;;;;;;;;;;
2022/08/28 15:15:04;;;;;;;2.4;2.2;;;;;;;;;;;;;
2022/08/28 15:17:30;;;;;;;2.2;2;;;;;;;;;;;;;
2022/08/28 15:19:55;;;;;;;1.6;1.5;;;;;;;;;;;;;
2022/08/28 15:22:20;;;;;;;1.8;1.4;;;;;;;;;;;;;
2022/08/28 15:24:45;;;;;;;1.6;1.5;;;;;;;;;;;;;
2022/08/28 15:27:12;;;;;;;1.8;1.7;;;;;;;;;;;;;
2022/08/28 15:29:37;;;;;;;2.9;2;;;;;;;;;;;;;
2022/08/28 15:32:02;;;;;;;1.7;1.6;;;;;;;;;;;;;
2022/08/28 15:34:28;;;;;;;2;1.8;;;;;;;;;;;;;
2022/08/28 15:36:53;;;;;;;1.8;1.7;;;;;;;;;;;;;